Time,TemperatureF,DewpointF,PressureIn,WindDirection,WindDirectionDegrees,WindSpeedMPH,WindSpeedGustMPH,Humidity,HourlyPrecipIn,Conditions,Clouds,dailyrainin,SoftwareType,DateUTC
2014-01-11 00:00:00,54.0,53.0,29.90,SSW,202,2.3,2.3,95,0.00,,,0.01,Rainwise IP-100,2014-01-11 06:00:00,
2014-01-11 00:05:00,53.8,52.0,29.91,SSW,202,1.2,3.0,95,0.00,,,0.00,Rainwise IP-100,2014-01-11 06:05:00,
2014-01-11 00:10:00,53.8,52.0,29.91,South,180,1.4,2.0,95,0.00,,,0.00,Rainwise IP-100,2014-01-11 06:10:00,
2014-01-11 00:15:00,53.9,53.0,29.91,SSW,202,1.4,3.0,95,0.00,,,0.00,Rainwise IP-100,2014-01-11 06:15:00,
2014-01-11 00:20:00,54.1,53.0,29.91,WSW,247,2.8,5.0,95,0.00,,,0.00,Rainwise IP-100,2014-01-11 06:20:00,
2014-01-11 00:25:00,55.0,53.0,29.91,SW,225,4.4,5.0,94,0.00,,,0.00,Rainwise IP-100,2014-01-11 06:25:00,
2014-01-11 00:30:00,56.1,53.0,29.91,SW,225,3.7,5.0,92,0.00,,,0.00,Rainwise IP-100,2014-01-11 06:30:00,
2014-01-11 00:36:00,56.6,54.0,29.91,WSW,247,3.0,4.0,91,0.00,,,0.00,Rainwise IP-100,2014-01-11 06:36:00,
2014-01-11 00:41:00,56.8,53.0,29.92,WSW,247,2.8,6.0,90,0.00,,,0.00,Rainwise IP-100,2014-01-11 06:41:00,
2014-01-11 00:46:00,56.8,53.0,29.92,NW,315,0.0,5.0,90,0.00,,,0.00,Rainwise IP-100,2014-01-11 06:46:00,
2014-01-11 00:51:00,56.1,53.0,29.92,WNW,292,1.4,3.0,89,0.00,,,0.00,Rainwise IP-100,2014-01-11 06:51:00,
2014-01-11 00:56:00,56.2,53.0,29.92,WSW,247,4.4,6.0,89,0.00,,,0.00,Rainwise IP-100,2014-01-11 06:56:00,
2014-01-11 01:01:00,57.2,54.0,29.92,WSW,247,2.8,10.0,89,0.00,,,0.00,Rainwise IP-100,2014-01-11 07:01:00,
2014-01-11 01:06:00,57.5,54.0,29.92,WSW,247,4.4,8.0,88,0.00,,,0.00,Rainwise IP-100,2014-01-11 07:06:00,
2014-01-11 01:12:00,57.4,54.0,29.92,WSW,247,4.4,8.0,87,0.00,,,0.00,Rainwise IP-100,2014-01-11 07:12:00,
2014-01-11 01:17:00,57.3,53.0,29.92,WSW,247,2.3,7.0,86,0.00,,,0.00,Rainwise IP-100,2014-01-11 07:17:00,
2014-01-11 01:22:00,57.2,53.0,29.91,WSW,247,1.6,5.0,86,0.00,,,0.00,Rainwise IP-100,2014-01-11 07:22:00,
2014-01-11 01:27:00,57.0,53.0,29.91,SW,225,5.1,6.0,85,0.00,,,0.00,Rainwise IP-100,2014-01-11 07:27:00,
2014-01-11 01:32:00,56.7,53.0,29.91,SSE,157,1.9,6.0,86,0.00,,,0.00,Rainwise IP-100,2014-01-11 07:32:00,
2014-01-11 01:37:00,56.2,52.0,29.91,SSW,202,2.1,5.0,86,0.00,,,0.00,Rainwise IP-100,2014-01-11 07:37:00,
2014-01-11 01:42:00,55.8,52.0,29.91,SSW,202,2.6,6.0,87,0.00,,,0.00,Rainwise IP-100,2014-01-11 07:42:00,
2014-01-11 01:47:00,55.6,52.0,29.91,WSW,247,5.4,5.4,87,0.00,,,0.00,Rainwise IP-100,2014-01-11 07:47:00,
2014-01-11 01:53:00,55.6,52.0,29.92,SW,225,2.1,6.0,87,0.00,,,0.00,Rainwise IP-100,2014-01-11 07:53:00,
2014-01-11 01:58:00,55.6,52.0,29.92,SW,225,3.0,7.0,87,0.00,,,0.00,Rainwise IP-100,2014-01-11 07:58:00,
2014-01-11 02:03:00,55.5,52.0,29.92,West,270,2.3,6.0,87,0.00,,,0.00,Rainwise IP-100,2014-01-11 08:03:00,
2014-01-11 02:08:00,55.5,52.0,29.92,WSW,247,1.6,6.0,87,0.00,,,0.00,Rainwise IP-100,2014-01-11 08:08:00,
2014-01-11 02:13:00,55.2,51.0,29.93,WSW,247,2.3,4.0,87,0.00,,,0.00,Rainwise IP-100,2014-01-11 08:13:00,
2014-01-11 02:18:00,55.0,51.0,29.93,WSW,247,5.1,5.1,87,0.00,,,0.00,Rainwise IP-100,2014-01-11 08:18:00,
2014-01-11 02:23:00,55.1,51.0,29.93,NW,315,1.4,6.0,86,0.00,,,0.00,Rainwise IP-100,2014-01-11 08:23:00,
2014-01-11 02:28:00,54.5,50.0,29.93,North,360,1.9,3.0,86,0.00,,,0.00,Rainwise IP-100,2014-01-11 08:28:00,
2014-01-11 02:34:00,53.5,49.0,29.93,North,360,2.3,3.0,86,0.00,,,0.00,Rainwise IP-100,2014-01-11 08:34:00,
2014-01-11 02:39:00,52.2,48.0,29.93,NW,315,2.8,3.0,87,0.00,,,0.00,Rainwise IP-100,2014-01-11 08:39:00,
2014-01-11 02:44:00,50.6,47.0,29.94,NW,315,1.9,3.0,88,0.00,,,0.00,Rainwise IP-100,2014-01-11 08:44:00,
2014-01-11 02:49:00,50.0,47.0,29.94,NW,315,1.2,3.0,89,0.00,,,0.00,Rainwise IP-100,2014-01-11 08:49:00,
2014-01-11 02:54:00,49.5,47.0,29.94,NNW,337,2.3,2.3,90,0.00,,,0.00,Rainwise IP-100,2014-01-11 08:54:00,
2014-01-11 02:59:00,49.1,47.0,29.93,NNW,337,2.6,2.6,91,0.00,,,0.00,Rainwise IP-100,2014-01-11 08:59:00,
2014-01-11 03:04:00,48.7,47.0,29.94,NNW,337,2.3,4.0,92,0.00,,,0.00,Rainwise IP-100,2014-01-11 09:04:00,
2014-01-11 03:10:00,48.1,46.0,29.94,NNW,337,2.3,4.0,92,0.00,,,0.00,Rainwise IP-100,2014-01-11 09:10:00,
2014-01-11 03:15:00,47.7,45.0,29.94,NW,315,2.6,3.0,92,0.00,,,0.00,Rainwise IP-100,2014-01-11 09:15:00,
2014-01-11 03:20:00,47.6,46.0,29.95,NW,315,2.1,4.0,93,0.00,,,0.00,Rainwise IP-100,2014-01-11 09:20:00,
2014-01-11 03:25:00,47.4,46.0,29.95,NW,315,1.4,3.0,93,0.00,,,0.00,Rainwise IP-100,2014-01-11 09:25:00,
2014-01-11 03:30:00,46.8,45.0,29.96,NNW,337,2.3,2.3,93,0.00,,,0.00,Rainwise IP-100,2014-01-11 09:30:00,
2014-01-11 03:35:00,46.4,44.0,29.96,NNW,337,1.9,4.0,93,0.00,,,0.00,Rainwise IP-100,2014-01-11 09:35:00,
2014-01-11 03:40:00,46.6,45.0,29.96,NNW,337,2.3,4.0,93,0.00,,,0.00,Rainwise IP-100,2014-01-11 09:40:00,
2014-01-11 03:45:00,48.0,46.0,29.97,West,270,4.4,7.0,92,0.00,,,0.00,Rainwise IP-100,2014-01-11 09:45:00,
2014-01-11 03:51:00,50.9,48.0,29.97,NW,315,3.3,9.0,90,0.00,,,0.00,Rainwise IP-100,2014-01-11 09:51:00,
2014-01-11 03:56:00,52.9,48.0,29.97,NW,315,2.8,8.0,85,0.00,,,0.00,Rainwise IP-100,2014-01-11 09:56:00,
2014-01-11 04:01:00,53.4,48.0,29.98,NNW,337,1.6,5.0,82,0.00,,,0.00,Rainwise IP-100,2014-01-11 10:01:00,
2014-01-11 04:06:00,53.1,47.0,29.97,NNW,337,3.3,6.0,80,0.00,,,0.00,Rainwise IP-100,2014-01-11 10:06:00,
2014-01-11 04:11:00,52.3,46.0,29.98,NNW,337,3.7,7.0,80,0.00,,,0.00,Rainwise IP-100,2014-01-11 10:11:00,
2014-01-11 04:16:00,51.6,46.0,29.98,NNW,337,3.5,7.0,80,0.00,,,0.00,Rainwise IP-100,2014-01-11 10:16:00,
2014-01-11 04:21:00,51.1,45.0,29.98,NNW,337,3.0,8.0,80,0.00,,,0.00,Rainwise IP-100,2014-01-11 10:21:00,
2014-01-11 04:27:00,50.7,45.0,29.98,NNW,337,3.0,6.0,80,0.00,,,0.00,Rainwise IP-100,2014-01-11 10:27:00,
2014-01-11 04:32:00,50.3,44.0,29.99,North,360,7.5,7.5,80,0.00,,,0.00,Rainwise IP-100,2014-01-11 10:32:00,
2014-01-11 04:37:00,50.5,44.0,30.00,NNE,22,4.0,7.0,79,0.00,,,0.00,Rainwise IP-100,2014-01-11 10:37:00,
2014-01-11 04:42:00,50.5,44.0,30.00,NNW,337,4.9,6.0,78,0.00,,,0.00,Rainwise IP-100,2014-01-11 10:42:00,
2014-01-11 04:47:00,50.3,43.0,30.00,NW,315,2.3,8.0,79,0.00,,,0.00,Rainwise IP-100,2014-01-11 10:47:00,
2014-01-11 04:52:00,50.1,43.0,30.00,NNW,337,5.8,8.0,79,0.00,,,0.00,Rainwise IP-100,2014-01-11 10:52:00,
2014-01-11 04:57:00,49.8,44.0,30.00,NNW,337,7.9,11.0,80,0.00,,,0.00,Rainwise IP-100,2014-01-11 10:57:00,
2014-01-11 05:02:00,49.5,43.0,30.01,North,360,8.6,10.0,79,0.00,,,0.00,Rainwise IP-100,2014-01-11 11:02:00,
2014-01-11 05:08:00,49.3,42.0,30.01,NW,315,7.0,12.0,78,0.00,,,0.00,Rainwise IP-100,2014-01-11 11:08:00,
2014-01-11 05:13:00,49.3,42.0,30.01,North,360,7.0,12.0,76,0.00,,,0.00,Rainwise IP-100,2014-01-11 11:13:00,
2014-01-11 05:18:00,49.2,41.0,30.01,NNW,337,7.9,12.0,74,0.00,,,0.00,Rainwise IP-100,2014-01-11 11:18:00,
2014-01-11 05:23:00,48.8,41.0,30.02,NNE,22,4.2,11.0,74,0.00,,,0.00,Rainwise IP-100,2014-01-11 11:23:00,
2014-01-11 05:28:00,48.3,40.0,30.02,North,360,3.7,8.0,74,0.00,,,0.00,Rainwise IP-100,2014-01-11 11:28:00,
2014-01-11 05:33:00,47.9,41.0,30.02,NNW,337,4.2,7.0,75,0.00,,,0.00,Rainwise IP-100,2014-01-11 11:33:00,
2014-01-11 05:38:00,47.5,40.0,30.02,NNW,337,5.4,7.0,75,0.00,,,0.00,Rainwise IP-100,2014-01-11 11:38:00,
2014-01-11 05:44:00,47.3,39.0,30.02,North,360,4.2,9.0,76,0.00,,,0.00,Rainwise IP-100,2014-01-11 11:44:00,
2014-01-11 05:49:00,47.1,39.0,30.03,NNW,337,2.3,7.0,76,0.00,,,0.00,Rainwise IP-100,2014-01-11 11:49:00,
2014-01-11 05:54:00,46.8,39.0,30.04,NNW,337,4.4,4.4,75,0.00,,,0.00,Rainwise IP-100,2014-01-11 11:54:00,
2014-01-11 05:59:00,46.5,39.0,30.04,NNW,337,2.6,5.0,75,0.00,,,0.00,Rainwise IP-100,2014-01-11 11:59:00,
2014-01-11 06:04:00,46.2,39.0,30.04,North,360,2.1,4.0,76,0.00,,,0.00,Rainwise IP-100,2014-01-11 12:04:00,
2014-01-11 06:09:00,46.0,39.0,30.04,North,360,1.4,4.0,76,0.00,,,0.00,Rainwise IP-100,2014-01-11 12:09:00,
2014-01-11 06:15:00,45.6,39.0,30.04,NNW,337,2.6,2.6,76,0.00,,,0.00,Rainwise IP-100,2014-01-11 12:15:00,
2014-01-11 06:20:00,45.4,38.0,30.05,NW,315,0.0,2.0,76,0.00,,,0.00,Rainwise IP-100,2014-01-11 12:20:00,
2014-01-11 06:25:00,45.6,38.0,30.05,NNW,337,1.9,3.0,75,0.00,,,0.00,Rainwise IP-100,2014-01-11 12:25:00,
2014-01-11 06:30:00,45.8,38.0,30.05,NNW,337,1.6,2.0,74,0.00,,,0.00,Rainwise IP-100,2014-01-11 12:30:00,
2014-01-11 06:35:00,45.7,38.0,30.05,NNW,337,2.1,2.1,74,0.00,,,0.00,Rainwise IP-100,2014-01-11 12:35:00,
2014-01-11 06:40:00,45.5,38.0,30.05,NW,315,1.6,3.0,74,0.00,,,0.00,Rainwise IP-100,2014-01-11 12:40:00,
2014-01-11 06:45:00,45.1,37.0,30.05,NNE,22,2.6,3.0,74,0.00,,,0.00,Rainwise IP-100,2014-01-11 12:45:00,
2014-01-11 06:51:00,44.6,37.0,30.06,NW,315,1.9,3.0,74,0.00,,,0.00,Rainwise IP-100,2014-01-11 12:51:00,
2014-01-11 06:56:00,44.0,37.0,30.06,NNW,337,1.6,3.0,75,0.00,,,0.00,Rainwise IP-100,2014-01-11 12:56:00,
2014-01-11 07:01:00,43.9,37.0,30.06,NNW,337,2.1,3.0,75,0.00,,,0.00,Rainwise IP-100,2014-01-11 13:01:00,
2014-01-11 07:06:00,43.9,36.0,30.07,NNW,337,2.6,3.0,74,0.00,,,0.00,Rainwise IP-100,2014-01-11 13:06:00,
2014-01-11 07:11:00,42.6,36.0,30.07,NNW,337,2.6,3.0,76,0.00,,,0.00,Rainwise IP-100,2014-01-11 13:11:00,
2014-01-11 07:16:00,41.4,35.0,30.08,NNW,337,2.8,3.0,78,0.00,,,0.00,Rainwise IP-100,2014-01-11 13:16:00,
2014-01-11 07:21:00,40.9,36.0,30.08,NNW,337,2.8,3.0,79,0.00,,,0.00,Rainwise IP-100,2014-01-11 13:21:00,
2014-01-11 07:26:00,40.7,36.0,30.08,NW,315,1.6,3.0,80,0.00,,,0.00,Rainwise IP-100,2014-01-11 13:26:00,
2014-01-11 07:32:00,40.8,36.0,30.08,WNW,292,2.3,4.0,81,0.00,,,0.00,Rainwise IP-100,2014-01-11 13:32:00,
2014-01-11 07:37:00,40.9,36.0,30.08,NW,315,2.3,3.0,80,0.00,,,0.00,Rainwise IP-100,2014-01-11 13:37:00,
2014-01-11 07:42:00,40.8,36.0,30.09,NW,315,3.3,3.3,80,0.00,,,0.00,Rainwise IP-100,2014-01-11 13:42:00,
2014-01-11 07:47:00,40.6,36.0,30.09,NNW,337,2.1,4.0,80,0.00,,,0.00,Rainwise IP-100,2014-01-11 13:47:00,
2014-01-11 07:52:00,40.4,35.0,30.09,NW,315,3.3,4.0,80,0.00,,,0.00,Rainwise IP-100,2014-01-11 13:52:00,
2014-01-11 07:57:00,40.6,36.0,30.09,NW,315,2.8,4.0,80,0.00,,,0.00,Rainwise IP-100,2014-01-11 13:57:00,
2014-01-11 08:02:00,41.0,36.0,30.10,NW,315,2.8,3.0,79,0.00,,,0.00,Rainwise IP-100,2014-01-11 14:02:00,
2014-01-11 08:08:00,41.2,36.0,30.11,NNW,337,2.6,4.0,79,0.00,,,0.00,Rainwise IP-100,2014-01-11 14:08:00,
2014-01-11 08:13:00,41.2,35.0,30.11,NNW,337,2.1,3.0,78,0.00,,,0.00,Rainwise IP-100,2014-01-11 14:13:00,
2014-01-11 08:18:00,41.3,36.0,30.12,NNW,337,2.8,3.0,79,0.00,,,0.00,Rainwise IP-100,2014-01-11 14:18:00,
2014-01-11 08:23:00,42.0,36.0,30.12,NNW,337,2.3,3.0,78,0.00,,,0.00,Rainwise IP-100,2014-01-11 14:23:00,
2014-01-11 08:28:00,42.6,37.0,30.13,North,360,2.6,3.0,78,0.00,,,0.00,Rainwise IP-100,2014-01-11 14:28:00,
2014-01-11 08:33:00,43.2,37.0,30.13,NNW,337,3.5,4.0,77,0.00,,,0.00,Rainwise IP-100,2014-01-11 14:33:00,
2014-01-11 08:38:00,43.9,37.0,30.14,North,360,3.7,4.0,75,0.00,,,0.00,Rainwise IP-100,2014-01-11 14:38:00,
2014-01-11 08:43:00,44.7,37.0,30.14,North,360,2.6,4.0,73,0.00,,,0.00,Rainwise IP-100,2014-01-11 14:43:00,
2014-01-11 08:49:00,45.7,37.0,30.15,North,360,2.6,2.6,72,0.00,,,0.00,Rainwise IP-100,2014-01-11 14:49:00,
2014-01-11 08:54:00,46.8,37.0,30.15,NNW,337,3.0,3.0,70,0.00,,,0.00,Rainwise IP-100,2014-01-11 14:54:00,
2014-01-11 08:59:00,48.2,38.0,30.15,North,360,0.0,3.0,68,0.00,,,0.00,Rainwise IP-100,2014-01-11 14:59:00,
2014-01-11 09:04:00,49.6,39.0,30.16,North,360,3.0,3.0,67,0.00,,,0.00,Rainwise IP-100,2014-01-11 15:04:00,
2014-01-11 09:09:00,51.0,40.0,30.16,NNW,337,2.8,6.0,65,0.00,,,0.00,Rainwise IP-100,2014-01-11 15:09:00,
2014-01-11 09:14:00,52.4,39.0,30.16,NNW,337,3.7,5.0,62,0.00,,,0.00,Rainwise IP-100,2014-01-11 15:14:00,
2014-01-11 09:19:00,53.7,40.0,30.17,North,360,2.3,4.0,60,0.00,,,0.00,Rainwise IP-100,2014-01-11 15:19:00,
2014-01-11 09:25:00,54.9,41.0,30.17,NNE,22,3.7,3.7,60,0.00,,,0.00,Rainwise IP-100,2014-01-11 15:25:00,
2014-01-11 09:30:00,56.1,41.0,30.17,NNW,337,1.6,4.0,57,0.00,,,0.00,Rainwise IP-100,2014-01-11 15:30:00,
2014-01-11 09:35:00,57.1,41.0,30.18,North,360,5.1,5.1,55,0.00,,,0.00,Rainwise IP-100,2014-01-11 15:35:00,
2014-01-11 09:40:00,58.3,40.0,30.17,North,360,2.6,5.0,50,0.00,,,0.00,Rainwise IP-100,2014-01-11 15:40:00,
2014-01-11 09:45:00,59.1,38.0,30.18,NNW,337,6.3,6.3,46,0.00,,,0.00,Rainwise IP-100,2014-01-11 15:45:00,
2014-01-11 09:50:00,59.8,37.0,30.18,NNW,337,3.3,8.0,44,0.00,,,0.00,Rainwise IP-100,2014-01-11 15:50:00,
2014-01-11 09:55:00,60.3,36.0,30.19,NNW,337,5.1,9.0,41,0.00,,,0.00,Rainwise IP-100,2014-01-11 15:55:00,
2014-01-11 10:00:00,60.8,36.0,30.19,North,360,3.0,9.0,40,0.00,,,0.00,Rainwise IP-100,2014-01-11 16:00:00,
2014-01-11 10:06:00,61.3,36.0,30.19,North,360,2.8,6.0,38,0.00,,,0.00,Rainwise IP-100,2014-01-11 16:06:00,
2014-01-11 10:11:00,61.8,35.0,30.19,North,360,6.1,9.0,37,0.00,,,0.00,Rainwise IP-100,2014-01-11 16:11:00,
2014-01-11 10:16:00,62.0,35.0,30.20,North,360,3.7,9.0,35,0.00,,,0.00,Rainwise IP-100,2014-01-11 16:16:00,
2014-01-11 10:21:00,62.3,33.0,30.20,NE,45,4.4,11.0,34,0.00,,,0.00,Rainwise IP-100,2014-01-11 16:21:00,
2014-01-11 10:26:00,62.3,32.0,30.19,NNW,337,5.4,13.0,33,0.00,,,0.00,Rainwise IP-100,2014-01-11 16:26:00,
2014-01-11 10:31:00,62.4,33.0,30.20,NNE,22,0.0,11.0,33,0.00,,,0.00,Rainwise IP-100,2014-01-11 16:31:00,
2014-01-11 10:36:00,62.8,33.0,30.20,NNW,337,4.9,10.0,33,0.00,,,0.00,Rainwise IP-100,2014-01-11 16:36:00,
2014-01-11 10:42:00,63.2,33.0,30.20,NE,45,5.1,8.0,33,0.00,,,0.00,Rainwise IP-100,2014-01-11 16:42:00,
2014-01-11 10:47:00,63.6,33.0,30.20,North,360,6.3,7.0,33,0.00,,,0.00,Rainwise IP-100,2014-01-11 16:47:00,
2014-01-11 10:52:00,64.1,35.0,30.20,NNW,337,4.7,7.0,33,0.00,,,0.00,Rainwise IP-100,2014-01-11 16:52:00,
2014-01-11 10:57:00,64.5,35.0,30.19,North,360,5.8,8.0,32,0.00,,,0.00,Rainwise IP-100,2014-01-11 16:57:00,
2014-01-11 11:02:00,64.6,33.0,30.20,NNE,22,2.1,9.0,31,0.00,,,0.00,Rainwise IP-100,2014-01-11 17:02:00,
2014-01-11 11:07:00,64.5,33.0,30.20,NNE,22,2.8,9.0,31,0.00,,,0.00,Rainwise IP-100,2014-01-11 17:07:00,
2014-01-11 11:12:00,64.8,32.0,30.19,East,90,0.0,9.0,30,0.00,,,0.00,Rainwise IP-100,2014-01-11 17:12:00,
2014-01-11 11:17:00,65.3,33.0,30.19,NNW,337,5.8,7.0,30,0.00,,,0.00,Rainwise IP-100,2014-01-11 17:17:00,
2014-01-11 11:22:00,65.6,33.0,30.19,NNW,337,1.9,7.0,30,0.00,,,0.00,Rainwise IP-100,2014-01-11 17:22:00,
2014-01-11 11:28:00,65.5,32.0,30.19,NNW,337,7.5,9.0,29,0.00,,,0.00,Rainwise IP-100,2014-01-11 17:28:00,
2014-01-11 11:33:00,65.4,32.0,30.19,NNE,22,5.6,10.0,29,0.00,,,0.00,Rainwise IP-100,2014-01-11 17:33:00,
2014-01-11 11:38:00,65.9,33.0,30.18,North,360,5.1,9.0,29,0.00,,,0.00,Rainwise IP-100,2014-01-11 17:38:00,
2014-01-11 11:43:00,66.4,32.0,30.19,NNE,22,1.6,6.0,28,0.00,,,0.00,Rainwise IP-100,2014-01-11 17:43:00,
2014-01-11 11:48:00,66.6,32.0,30.18,NNW,337,4.2,8.0,28,0.00,,,0.00,Rainwise IP-100,2014-01-11 17:48:00,
2014-01-11 11:53:00,66.7,32.0,30.18,North,360,4.4,6.0,28,0.00,,,0.00,Rainwise IP-100,2014-01-11 17:53:00,
2014-01-11 11:58:00,66.9,33.0,30.17,NW,315,5.8,8.0,28,0.00,,,0.00,Rainwise IP-100,2014-01-11 17:58:00,
2014-01-11 12:04:00,66.8,32.0,30.18,NNW,337,4.2,9.0,28,0.00,,,0.00,Rainwise IP-100,2014-01-11 18:04:00,
2014-01-11 12:09:00,66.7,32.0,30.17,NW,315,4.7,6.0,27,0.00,,,0.00,Rainwise IP-100,2014-01-11 18:09:00,
2014-01-11 12:14:00,66.9,32.0,30.16,East,90,2.6,8.0,27,0.00,,,0.00,Rainwise IP-100,2014-01-11 18:14:00,
2014-01-11 12:19:00,67.1,32.0,30.16,ESE,112,2.8,6.0,27,0.00,,,0.00,Rainwise IP-100,2014-01-11 18:19:00,
2014-01-11 12:24:00,67.5,32.0,30.16,North,360,5.8,6.0,27,0.00,,,0.00,Rainwise IP-100,2014-01-11 18:24:00,
2014-01-11 12:29:00,67.9,33.0,30.16,NNE,22,0.0,7.0,27,0.00,,,0.00,Rainwise IP-100,2014-01-11 18:29:00,
2014-01-11 12:35:00,68.1,33.0,30.16,North,360,4.0,7.0,27,0.00,,,0.00,Rainwise IP-100,2014-01-11 18:35:00,
2014-01-11 12:40:00,68.3,32.0,30.16,North,360,5.6,11.0,26,0.00,,,0.00,Rainwise IP-100,2014-01-11 18:40:00,
2014-01-11 12:45:00,68.3,32.0,30.16,NNE,22,1.6,9.0,26,0.00,,,0.00,Rainwise IP-100,2014-01-11 18:45:00,
2014-01-11 12:50:00,68.6,32.0,30.16,NNE,22,3.3,9.0,26,0.00,,,0.00,Rainwise IP-100,2014-01-11 18:50:00,
2014-01-11 12:55:00,68.7,32.0,30.16,NNW,337,6.1,7.0,25,0.00,,,0.00,Rainwise IP-100,2014-01-11 18:55:00,
2014-01-11 13:00:00,68.5,32.0,30.16,NNW,337,4.4,9.0,25,0.00,,,0.00,Rainwise IP-100,2014-01-11 19:00:00,
2014-01-11 13:05:00,68.7,32.0,30.15,NNE,22,1.9,8.0,25,0.00,,,0.00,Rainwise IP-100,2014-01-11 19:05:00,
2014-01-11 13:10:00,68.8,32.0,30.15,East,90,2.8,3.0,25,0.00,,,0.00,Rainwise IP-100,2014-01-11 19:10:00,
2014-01-11 13:16:00,68.9,32.0,30.15,WNW,292,4.2,5.0,25,0.00,,,0.00,Rainwise IP-100,2014-01-11 19:16:00,
2014-01-11 13:21:00,68.8,32.0,30.14,East,90,2.3,4.0,25,0.00,,,0.00,Rainwise IP-100,2014-01-11 19:21:00,
2014-01-11 13:26:00,69.0,32.0,30.14,North,360,0.0,6.0,25,0.00,,,0.00,Rainwise IP-100,2014-01-11 19:26:00,
2014-01-11 13:31:00,69.5,32.0,30.14,NW,315,4.4,6.0,24,0.00,,,0.00,Rainwise IP-100,2014-01-11 19:31:00,
2014-01-11 13:36:00,70.0,32.0,30.14,NNW,337,2.8,8.0,24,0.00,,,0.00,Rainwise IP-100,2014-01-11 19:36:00,
2014-01-11 13:41:00,69.9,32.0,30.13,NNW,337,5.4,11.0,24,0.00,,,0.00,Rainwise IP-100,2014-01-11 19:41:00,
2014-01-11 13:46:00,69.3,31.0,30.14,West,270,2.6,7.0,23,0.00,,,0.00,Rainwise IP-100,2014-01-11 19:46:00,
2014-01-11 13:51:00,69.2,29.0,30.13,NNE,22,0.0,6.0,22,0.00,,,0.00,Rainwise IP-100,2014-01-11 19:51:00,
2014-01-11 13:56:00,69.6,29.0,30.13,WNW,292,3.0,7.0,22,0.00,,,0.00,Rainwise IP-100,2014-01-11 19:56:00,
2014-01-11 14:02:00,69.7,29.0,30.12,NNW,337,2.8,3.0,22,0.00,,,0.00,Rainwise IP-100,2014-01-11 20:02:00,
2014-01-11 14:07:00,69.8,29.0,30.13,West,270,3.7,7.0,22,0.00,,,0.00,Rainwise IP-100,2014-01-11 20:07:00,
2014-01-11 14:09:00,70.0,29.0,30.12,WNW,292,2.6,7.0,22,0.00,,,0.00,Rainwise IP-100,2014-01-11 20:09:00,
2014-01-11 14:14:00,70.1,29.0,30.13,NNW,337,0.0,6.0,22,0.00,,,0.00,Rainwise IP-100,2014-01-11 20:14:00,
2014-01-11 14:19:00,70.0,29.0,30.13,SW,225,3.3,10.0,21,0.00,,,0.00,Rainwise IP-100,2014-01-11 20:19:00,
2014-01-11 14:24:00,69.7,28.0,30.13,ENE,67,2.3,7.0,21,0.00,,,0.00,Rainwise IP-100,2014-01-11 20:24:00,
2014-01-11 14:29:00,69.9,28.0,30.13,NNW,337,2.3,4.0,20,0.00,,,0.00,Rainwise IP-100,2014-01-11 20:29:00,
2014-01-11 14:34:00,70.0,28.0,30.12,NNW,337,6.1,7.0,20,0.00,,,0.00,Rainwise IP-100,2014-01-11 20:34:00,
2014-01-11 14:39:00,70.1,28.0,30.12,North,360,2.6,8.0,20,0.00,,,0.00,Rainwise IP-100,2014-01-11 20:39:00,
2014-01-11 14:45:00,70.6,29.0,30.12,NW,315,3.3,5.0,21,0.00,,,0.00,Rainwise IP-100,2014-01-11 20:45:00,
2014-01-11 14:50:00,71.2,29.0,30.12,North,360,5.6,5.6,21,0.00,,,0.00,Rainwise IP-100,2014-01-11 20:50:00,
2014-01-11 14:55:00,71.1,28.0,30.12,WSW,247,2.3,7.0,20,0.00,,,0.00,Rainwise IP-100,2014-01-11 20:55:00,
2014-01-11 15:00:00,70.6,26.0,30.12,NNW,337,2.3,7.0,19,0.00,,,0.00,Rainwise IP-100,2014-01-11 21:00:00,
2014-01-11 15:05:00,70.8,26.0,30.11,North,360,1.9,8.0,19,0.00,,,0.00,Rainwise IP-100,2014-01-11 21:05:00,
2014-01-11 15:10:00,71.1,26.0,30.12,NW,315,5.4,5.4,19,0.00,,,0.00,Rainwise IP-100,2014-01-11 21:10:00,
2014-01-11 15:15:00,70.5,26.0,30.11,NW,315,4.2,7.0,19,0.00,,,0.00,Rainwise IP-100,2014-01-11 21:15:00,
2014-01-11 15:20:00,70.0,28.0,30.11,NNW,337,3.7,7.0,20,0.00,,,0.00,Rainwise IP-100,2014-01-11 21:20:00,
2014-01-11 15:26:00,70.4,28.0,30.11,NNW,337,4.2,6.0,20,0.00,,,0.00,Rainwise IP-100,2014-01-11 21:26:00,
2014-01-11 15:31:00,71.0,28.0,30.11,NE,45,0.0,5.0,20,0.00,,,0.00,Rainwise IP-100,2014-01-11 21:31:00,
2014-01-11 15:34:00,71.2,28.0,30.11,West,270,3.3,5.0,20,0.00,,,0.00,Rainwise IP-100,2014-01-11 21:34:00,
2014-01-11 15:39:00,70.6,28.0,30.11,West,270,3.3,5.0,20,0.00,,,0.00,Rainwise IP-100,2014-01-11 21:39:00,
2014-01-11 15:44:00,69.9,28.0,30.12,West,270,2.8,5.0,20,0.00,,,0.00,Rainwise IP-100,2014-01-11 21:44:00,
2014-01-11 15:49:00,69.9,28.0,30.11,West,270,1.4,3.0,20,0.00,,,0.00,Rainwise IP-100,2014-01-11 21:49:00,
2014-01-11 15:54:00,70.2,29.0,30.12,NNW,337,2.8,6.0,21,0.00,,,0.00,Rainwise IP-100,2014-01-11 21:54:00,
2014-01-11 15:59:00,70.1,29.0,30.12,NNW,337,4.2,4.2,21,0.00,,,0.00,Rainwise IP-100,2014-01-11 21:59:00,
2014-01-11 16:04:00,70.0,29.0,30.11,WNW,292,2.8,4.0,21,0.00,,,0.00,Rainwise IP-100,2014-01-11 22:04:00,
2014-01-11 16:10:00,69.9,29.0,30.12,NNW,337,2.6,4.0,21,0.00,,,0.00,Rainwise IP-100,2014-01-11 22:10:00,
2014-01-11 16:15:00,70.1,29.0,30.12,NW,315,3.0,4.0,21,0.00,,,0.00,Rainwise IP-100,2014-01-11 22:15:00,
2014-01-11 16:20:00,69.9,29.0,30.12,West,270,2.3,4.0,21,0.00,,,0.00,Rainwise IP-100,2014-01-11 22:20:00,
2014-01-11 16:25:00,69.4,28.0,30.12,NNW,337,0.0,4.0,21,0.00,,,0.00,Rainwise IP-100,2014-01-11 22:25:00,
2014-01-11 16:30:00,69.2,28.0,30.12,NW,315,2.1,4.0,21,0.00,,,0.00,Rainwise IP-100,2014-01-11 22:30:00,
2014-01-11 16:35:00,68.9,28.0,30.12,NW,315,2.6,5.0,21,0.00,,,0.00,Rainwise IP-100,2014-01-11 22:35:00,
2014-01-11 16:40:00,69.0,28.0,30.12,NW,315,2.1,5.0,21,0.00,,,0.00,Rainwise IP-100,2014-01-11 22:40:00,
2014-01-11 16:46:00,68.9,28.0,30.13,NW,315,4.0,6.0,21,0.00,,,0.00,Rainwise IP-100,2014-01-11 22:46:00,
2014-01-11 16:51:00,68.4,28.0,30.13,NW,315,2.1,4.0,21,0.00,,,0.00,Rainwise IP-100,2014-01-11 22:51:00,
2014-01-11 16:56:00,68.1,26.0,30.13,NW,315,3.5,4.0,21,0.00,,,0.00,Rainwise IP-100,2014-01-11 22:56:00,
2014-01-11 17:01:00,67.9,28.0,30.12,NW,315,0.0,4.0,22,0.00,,,0.00,Rainwise IP-100,2014-01-11 23:01:00,
2014-01-11 17:06:00,67.3,28.0,30.12,WNW,292,1.4,1.4,23,0.00,,,0.00,Rainwise IP-100,2014-01-11 23:06:00,
2014-01-11 17:11:00,66.5,29.0,30.13,WNW,292,0.0,2.0,24,0.00,,,0.00,Rainwise IP-100,2014-01-11 23:11:00,
2014-01-11 17:16:00,65.1,29.0,30.13,West,270,1.9,2.0,25,0.00,,,0.00,Rainwise IP-100,2014-01-11 23:16:00,
2014-01-11 17:21:00,63.6,28.0,30.13,West,270,1.4,2.0,25,0.00,,,0.00,Rainwise IP-100,2014-01-11 23:21:00,
2014-01-11 17:27:00,62.5,26.0,30.13,West,270,0.0,1.0,25,0.00,,,0.00,Rainwise IP-100,2014-01-11 23:27:00,
2014-01-11 17:32:00,61.6,26.0,30.13,West,270,1.6,2.0,26,0.00,,,0.00,Rainwise IP-100,2014-01-11 23:32:00,
2014-01-11 17:37:00,60.3,26.0,30.13,West,270,1.2,1.2,27,0.00,,,0.00,Rainwise IP-100,2014-01-11 23:37:00,
2014-01-11 17:42:00,58.9,28.0,30.13,NNW,337,3.0,3.0,30,0.00,,,0.00,Rainwise IP-100,2014-01-11 23:42:00,
2014-01-11 17:47:00,57.8,29.0,30.13,West,270,2.3,3.0,33,0.00,,,0.00,Rainwise IP-100,2014-01-11 23:47:00,
2014-01-11 17:52:00,56.0,31.0,30.14,WSW,247,0.0,3.0,38,0.00,,,0.00,Rainwise IP-100,2014-01-11 23:52:00,
2014-01-11 17:57:00,55.2,32.0,30.13,NNW,337,2.8,2.8,40,0.00,,,0.00,Rainwise IP-100,2014-01-11 23:57:00,
2014-01-11 18:03:00,54.1,32.0,30.13,NW,315,1.6,3.0,42,0.00,,,0.00,Rainwise IP-100,2014-01-12 00:03:00,
2014-01-11 18:08:00,52.8,32.0,30.14,NNW,337,2.3,2.3,44,0.00,,,0.00,Rainwise IP-100,2014-01-12 00:08:00,
2014-01-11 18:13:00,52.2,32.0,30.13,WNW,292,1.4,2.0,45,0.00,,,0.00,Rainwise IP-100,2014-01-12 00:13:00,
2014-01-11 18:18:00,51.6,32.0,30.13,WNW,292,1.4,1.4,47,0.00,,,0.00,Rainwise IP-100,2014-01-12 00:18:00,
2014-01-11 18:23:00,50.6,32.0,30.13,NW,315,1.9,2.0,49,0.00,,,0.00,Rainwise IP-100,2014-01-12 00:23:00,
2014-01-11 18:28:00,49.7,32.0,30.14,WNW,292,1.4,2.0,51,0.00,,,0.00,Rainwise IP-100,2014-01-12 00:28:00,
2014-01-11 18:33:00,49.2,32.0,30.14,NNW,337,1.9,2.0,52,0.00,,,0.00,Rainwise IP-100,2014-01-12 00:33:00,
2014-01-11 18:38:00,48.9,33.0,30.13,NW,315,3.0,3.0,53,0.00,,,0.00,Rainwise IP-100,2014-01-12 00:38:00,
2014-01-11 18:44:00,48.5,33.0,30.13,NW,315,2.8,4.0,55,0.00,,,0.00,Rainwise IP-100,2014-01-12 00:44:00,
2014-01-11 18:49:00,48.3,33.0,30.14,NNW,337,2.8,3.0,56,0.00,,,0.00,Rainwise IP-100,2014-01-12 00:49:00,
2014-01-11 18:54:00,47.9,33.0,30.13,WNW,292,4.0,4.0,57,0.00,,,0.00,Rainwise IP-100,2014-01-12 00:54:00,
2014-01-11 18:59:00,47.1,33.0,30.14,WNW,292,2.3,4.0,59,0.00,,,0.00,Rainwise IP-100,2014-01-12 00:59:00,
2014-01-11 19:04:00,46.9,33.0,30.14,NNW,337,2.3,3.0,59,0.00,,,0.00,Rainwise IP-100,2014-01-12 01:04:00,
2014-01-11 19:09:00,46.8,33.0,30.14,NNW,337,2.8,3.0,60,0.00,,,0.00,Rainwise IP-100,2014-01-12 01:09:00,
2014-01-11 19:14:00,46.5,33.0,30.14,NNW,337,4.2,4.2,60,0.00,,,0.00,Rainwise IP-100,2014-01-12 01:14:00,
2014-01-11 19:20:00,45.9,33.0,30.14,NW,315,4.0,4.0,61,0.00,,,0.00,Rainwise IP-100,2014-01-12 01:20:00,
2014-01-11 19:25:00,45.6,33.0,30.14,NW,315,2.3,5.0,61,0.00,,,0.00,Rainwise IP-100,2014-01-12 01:25:00,
2014-01-11 19:30:00,45.1,33.0,30.14,NNW,337,3.3,3.3,62,0.00,,,0.00,Rainwise IP-100,2014-01-12 01:30:00,
2014-01-11 19:35:00,44.6,33.0,30.14,NW,315,2.1,3.0,63,0.00,,,0.00,Rainwise IP-100,2014-01-12 01:35:00,
2014-01-11 19:40:00,44.1,33.0,30.14,NW,315,2.1,2.1,64,0.00,,,0.00,Rainwise IP-100,2014-01-12 01:40:00,
2014-01-11 19:45:00,43.8,33.0,30.14,WNW,292,1.9,2.0,65,0.00,,,0.00,Rainwise IP-100,2014-01-12 01:45:00,
2014-01-11 19:50:00,43.4,32.0,30.14,NNW,337,2.8,3.0,66,0.00,,,0.00,Rainwise IP-100,2014-01-12 01:50:00,
2014-01-11 19:55:00,43.1,32.0,30.15,NNW,337,1.6,3.0,66,0.00,,,0.00,Rainwise IP-100,2014-01-12 01:55:00,
2014-01-11 20:00:00,42.9,33.0,30.15,NNW,337,2.8,3.0,67,0.00,,,0.00,Rainwise IP-100,2014-01-12 02:00:00,
2014-01-11 20:06:00,42.6,33.0,30.14,NW,315,2.8,4.0,67,0.00,,,0.00,Rainwise IP-100,2014-01-12 02:06:00,
2014-01-11 20:11:00,42.4,32.0,30.14,NW,315,3.0,4.0,68,0.00,,,0.00,Rainwise IP-100,2014-01-12 02:11:00,
2014-01-11 20:16:00,42.2,32.0,30.15,NW,315,1.9,3.0,68,0.00,,,0.00,Rainwise IP-100,2014-01-12 02:16:00,
2014-01-11 20:21:00,41.8,32.0,30.15,NNW,337,2.6,3.0,68,0.00,,,0.00,Rainwise IP-100,2014-01-12 02:21:00,
2014-01-11 20:26:00,41.4,32.0,30.15,NW,315,2.3,3.0,69,0.00,,,0.00,Rainwise IP-100,2014-01-12 02:26:00,
2014-01-11 20:31:00,40.9,32.0,30.15,NNW,337,2.8,4.0,70,0.00,,,0.00,Rainwise IP-100,2014-01-12 02:31:00,
2014-01-11 20:36:00,40.6,32.0,30.15,NNW,337,1.6,3.0,70,0.00,,,0.00,Rainwise IP-100,2014-01-12 02:36:00,
2014-01-11 20:42:00,40.4,32.0,30.16,NNW,337,0.0,2.0,71,0.00,,,0.00,Rainwise IP-100,2014-01-12 02:42:00,
2014-01-11 20:47:00,40.2,32.0,30.16,NNW,337,1.6,1.6,71,0.00,,,0.00,Rainwise IP-100,2014-01-12 02:47:00,
2014-01-11 20:52:00,40.1,32.0,30.15,NNW,337,1.9,2.0,72,0.00,,,0.00,Rainwise IP-100,2014-01-12 02:52:00,
2014-01-11 20:57:00,40.1,32.0,30.16,NNW,337,0.0,3.0,72,0.00,,,0.00,Rainwise IP-100,2014-01-12 02:57:00,
2014-01-11 21:02:00,39.9,32.0,30.16,WNW,292,1.2,2.0,73,0.00,,,0.00,Rainwise IP-100,2014-01-12 03:02:00,
2014-01-11 21:07:00,39.5,32.0,30.16,NNW,337,2.3,2.3,73,0.00,,,0.00,Rainwise IP-100,2014-01-12 03:07:00,
2014-01-11 21:12:00,39.1,32.0,30.16,NNW,337,4.2,4.2,74,0.00,,,0.00,Rainwise IP-100,2014-01-12 03:12:00,
2014-01-11 21:17:00,38.9,32.0,30.16,NNW,337,3.7,4.0,74,0.00,,,0.00,Rainwise IP-100,2014-01-12 03:17:00,
2014-01-11 21:23:00,38.8,32.0,30.16,NNW,337,2.3,4.0,75,0.00,,,0.00,Rainwise IP-100,2014-01-12 03:23:00,
2014-01-11 21:28:00,38.6,32.0,30.16,North,360,3.0,3.0,75,0.00,,,0.00,Rainwise IP-100,2014-01-12 03:28:00,
2014-01-11 21:33:00,38.4,31.0,30.16,NNW,337,2.8,3.0,76,0.00,,,0.00,Rainwise IP-100,2014-01-12 03:33:00,
2014-01-11 21:38:00,38.1,31.0,30.16,NNW,337,1.9,3.0,76,0.00,,,0.00,Rainwise IP-100,2014-01-12 03:38:00,
2014-01-11 21:43:00,38.3,31.0,30.16,NNW,337,2.1,3.0,76,0.00,,,0.00,Rainwise IP-100,2014-01-12 03:43:00,
2014-01-11 21:48:00,38.6,32.0,30.16,NNW,337,1.6,2.0,75,0.00,,,0.00,Rainwise IP-100,2014-01-12 03:48:00,
2014-01-11 21:53:00,38.4,31.0,30.16,NNW,337,0.0,2.0,75,0.00,,,0.00,Rainwise IP-100,2014-01-12 03:53:00,
2014-01-11 21:59:00,37.8,31.0,30.16,NNW,337,3.3,3.3,76,0.00,,,0.00,Rainwise IP-100,2014-01-12 03:59:00,
2014-01-11 22:04:00,37.3,31.0,30.16,NNW,337,2.8,3.0,77,0.00,,,0.00,Rainwise IP-100,2014-01-12 04:04:00,
2014-01-11 22:09:00,37.0,31.0,30.16,NNW,337,3.0,3.0,78,0.00,,,0.00,Rainwise IP-100,2014-01-12 04:09:00,
2014-01-11 22:14:00,37.0,31.0,30.16,NNW,337,3.3,3.3,78,0.00,,,0.00,Rainwise IP-100,2014-01-12 04:14:00,
2014-01-11 22:19:00,37.0,31.0,30.16,NNW,337,2.6,3.0,79,0.00,,,0.00,Rainwise IP-100,2014-01-12 04:19:00,
2014-01-11 22:24:00,36.9,31.0,30.16,NNW,337,0.0,2.0,79,0.00,,,0.00,Rainwise IP-100,2014-01-12 04:24:00,
2014-01-11 22:29:00,36.7,31.0,30.16,NNW,337,1.2,1.2,79,0.00,,,0.00,Rainwise IP-100,2014-01-12 04:29:00,
2014-01-11 22:34:00,36.2,31.0,30.16,NNW,337,2.3,3.0,79,0.00,,,0.00,Rainwise IP-100,2014-01-12 04:34:00,
2014-01-11 22:40:00,35.7,31.0,30.15,NNW,337,1.9,3.0,80,0.00,,,0.00,Rainwise IP-100,2014-01-12 04:40:00,
2014-01-11 22:45:00,35.4,29.0,30.15,NNW,337,1.9,2.0,81,0.00,,,0.00,Rainwise IP-100,2014-01-12 04:45:00,
2014-01-11 22:50:00,35.4,29.0,30.15,NNW,337,1.9,3.0,82,0.00,,,0.00,Rainwise IP-100,2014-01-12 04:50:00,
2014-01-11 22:55:00,35.2,31.0,30.15,NNW,337,2.8,3.0,83,0.00,,,0.00,Rainwise IP-100,2014-01-12 04:55:00,
2014-01-11 23:00:00,35.3,31.0,30.15,NNW,337,1.9,3.0,83,0.00,,,0.00,Rainwise IP-100,2014-01-12 05:00:00,
2014-01-11 23:01:00,35.4,31.0,30.15,NNW,337,1.6,3.0,83,0.00,,,0.00,Rainwise IP-100,2014-01-12 05:01:00,
2014-01-11 23:02:00,35.5,31.0,30.15,NNW,337,1.9,3.0,83,0.00,,,0.00,Rainwise IP-100,2014-01-12 05:02:00,
2014-01-11 23:03:00,35.6,31.0,30.15,NNW,337,1.4,2.0,83,0.00,,,0.00,Rainwise IP-100,2014-01-12 05:03:00,
2014-01-11 23:08:00,36.1,31.0,30.14,NNW,337,1.9,2.0,82,0.00,,,0.00,Rainwise IP-100,2014-01-12 05:08:00,
2014-01-11 23:13:00,35.8,31.0,30.14,NNW,337,3.7,3.7,82,0.00,,,0.00,Rainwise IP-100,2014-01-12 05:13:00,
2014-01-11 23:18:00,35.4,31.0,30.14,NNW,337,3.3,4.0,83,0.00,,,0.00,Rainwise IP-100,2014-01-12 05:18:00,
2014-01-11 23:23:00,35.0,31.0,30.14,NNW,337,3.3,3.3,84,0.00,,,0.00,Rainwise IP-100,2014-01-12 05:23:00,
2014-01-11 23:28:00,35.0,31.0,30.14,NNW,337,3.5,3.5,84,0.00,,,0.00,Rainwise IP-100,2014-01-12 05:28:00,
2014-01-11 23:33:00,35.1,31.0,30.14,NNW,337,2.8,3.0,84,0.00,,,0.00,Rainwise IP-100,2014-01-12 05:33:00,
2014-01-11 23:38:00,35.3,31.0,30.14,NNW,337,2.6,3.0,84,0.00,,,0.00,Rainwise IP-100,2014-01-12 05:38:00,
2014-01-11 23:44:00,35.3,31.0,30.14,NNW,337,2.3,3.0,84,0.00,,,0.00,Rainwise IP-100,2014-01-12 05:44:00,
2014-01-11 23:49:00,35.2,31.0,30.14,NNW,337,2.1,3.0,84,0.00,,,0.00,Rainwise IP-100,2014-01-12 05:49:00,
2014-01-11 23:54:00,35.2,31.0,30.14,NNW,337,2.3,3.0,85,0.00,,,0.00,Rainwise IP-100,2014-01-12 05:54:00,
2014-01-11 23:59:00,35.0,31.0,30.13,NNW,337,3.0,3.0,85,0.00,,,0.00,Rainwise IP-100,2014-01-12 05:59:00,